sensor_id;sensor_type;location;lat;lon;timestamp;P1;durP1;ratioP1;P2;durP2;ratioP2
26211;SDS011;13951;49.516;6.094;2023-09-08T00:00:53;4.95;;;4.30;;
26211;SDS011;13951;49.516;6.094;2023-09-08T00:03:26;6.72;;;4.95;;
26211;SDS011;13951;49.516;6.094;2023-09-08T00:05:59;5.57;;;4.47;;
26211;SDS011;13951;49.516;6.094;2023-09-08T00:08:32;4.90;;;4.25;;
26211;SDS011;13951;49.516;6.094;2023-09-08T00:11:06;4.55;;;3.80;;
26211;SDS011;13951;49.516;6.094;2023-09-08T00:13:39;5.97;;;4.20;;
26211;SDS011;13951;49.516;6.094;2023-09-08T00:16:12;4.78;;;3.92;;
26211;SDS011;13951;49.516;6.094;2023-09-08T00:18:46;3.85;;;3.45;;
26211;SDS011;13951;49.516;6.094;2023-09-08T00:21:19;5.00;;;4.38;;
26211;SDS011;13951;49.516;6.094;2023-09-08T00:23:52;5.10;;;4.47;;
26211;SDS011;13951;49.516;6.094;2023-09-08T00:26:26;5.68;;;4.43;;
26211;SDS011;13951;49.516;6.094;2023-09-08T00:28:59;7.15;;;4.93;;
26211;SDS011;13951;49.516;6.094;2023-09-08T00:31:33;5.88;;;4.28;;
26211;SDS011;13951;49.516;6.094;2023-09-08T00:34:06;4.97;;;3.85;;
26211;SDS011;13951;49.516;6.094;2023-09-08T00:36:39;3.70;;;3.40;;
26211;SDS011;13951;49.516;6.094;2023-09-08T00:39:13;3.80;;;3.20;;
26211;SDS011;13951;49.516;6.094;2023-09-08T00:41:46;3.35;;;2.88;;
26211;SDS011;13951;49.516;6.094;2023-09-08T00:44:19;4.57;;;3.90;;
26211;SDS011;13951;49.516;6.094;2023-09-08T00:46:52;4.35;;;3.72;;
26211;SDS011;13951;49.516;6.094;2023-09-08T00:49:25;4.50;;;3.90;;
26211;SDS011;13951;49.516;6.094;2023-09-08T00:51:59;5.40;;;3.88;;
26211;SDS011;13951;49.516;6.094;2023-09-08T00:54:33;4.68;;;4.22;;
26211;SDS011;13951;49.516;6.094;2023-09-08T00:57:07;4.88;;;3.97;;
26211;SDS011;13951;49.516;6.094;2023-09-08T00:59:42;4.43;;;4.03;;
26211;SDS011;13951;49.516;6.094;2023-09-08T01:02:16;4.18;;;3.78;;
26211;SDS011;13951;49.516;6.094;2023-09-08T01:04:50;4.32;;;3.80;;
26211;SDS011;13951;49.516;6.094;2023-09-08T01:07:24;4.53;;;3.95;;
26211;SDS011;13951;49.516;6.094;2023-09-08T01:09:58;5.30;;;3.97;;
26211;SDS011;13951;49.516;6.094;2023-09-08T01:12:36;4.78;;;3.40;;
26211;SDS011;13951;49.516;6.094;2023-09-08T01:15:09;5.22;;;3.90;;
26211;SDS011;13951;49.516;6.094;2023-09-08T01:17:43;4.13;;;3.70;;
26211;SDS011;13951;49.516;6.094;2023-09-08T01:20:21;5.20;;;3.65;;
26211;SDS011;13951;49.516;6.094;2023-09-08T01:25:46;3.70;;;3.40;;
26211;SDS011;13951;49.516;6.094;2023-09-08T01:28:29;3.63;;;3.20;;
26211;SDS011;13951;49.516;6.094;2023-09-08T01:31:05;4.43;;;3.30;;
26211;SDS011;13951;49.516;6.094;2023-09-08T01:33:38;4.00;;;3.35;;
26211;SDS011;13951;49.516;6.094;2023-09-08T01:36:12;4.60;;;3.47;;
26211;SDS011;13951;49.516;6.094;2023-09-08T01:38:46;4.45;;;4.03;;
26211;SDS011;13951;49.516;6.094;2023-09-08T01:41:20;4.45;;;4.05;;
26211;SDS011;13951;49.516;6.094;2023-09-08T01:43:53;3.83;;;3.42;;
26211;SDS011;13951;49.516;6.094;2023-09-08T01:46:27;5.40;;;4.03;;
26211;SDS011;13951;49.516;6.094;2023-09-08T01:49:00;4.05;;;3.65;;
26211;SDS011;13951;49.516;6.094;2023-09-08T01:51:34;3.35;;;3.05;;
26211;SDS011;13951;49.516;6.094;2023-09-08T01:54:08;3.30;;;3.00;;
26211;SDS011;13951;49.516;6.094;2023-09-08T01:56:42;3.33;;;3.03;;
26211;SDS011;13951;49.516;6.094;2023-09-08T01:59:15;2.90;;;2.53;;
26211;SDS011;13951;49.516;6.094;2023-09-08T02:01:48;3.90;;;2.88;;
26211;SDS011;13951;49.516;6.094;2023-09-08T02:04:22;3.35;;;3.05;;
26211;SDS011;13951;49.516;6.094;2023-09-08T02:06:55;4.05;;;3.03;;
26211;SDS011;13951;49.516;6.094;2023-09-08T02:09:32;3.30;;;3.00;;
26211;SDS011;13951;49.516;6.094;2023-09-08T02:12:06;2.90;;;2.60;;
26211;SDS011;13951;49.516;6.094;2023-09-08T02:14:39;3.10;;;2.80;;
26211;SDS011;13951;49.516;6.094;2023-09-08T02:17:14;3.15;;;2.85;;
26211;SDS011;13951;49.516;6.094;2023-09-08T02:19:47;3.10;;;2.83;;
26211;SDS011;13951;49.516;6.094;2023-09-08T02:22:20;3.10;;;2.65;;
26211;SDS011;13951;49.516;6.094;2023-09-08T02:24:53;2.45;;;2.25;;
26211;SDS011;13951;49.516;6.094;2023-09-08T02:27:26;2.92;;;2.50;;
26211;SDS011;13951;49.516;6.094;2023-09-08T02:30:00;3.63;;;3.15;;
26211;SDS011;13951;49.516;6.094;2023-09-08T02:32:35;3.03;;;2.45;;
26211;SDS011;13951;49.516;6.094;2023-09-08T02:35:09;2.53;;;2.30;;
26211;SDS011;13951;49.516;6.094;2023-09-08T02:37:43;2.95;;;2.67;;
26211;SDS011;13951;49.516;6.094;2023-09-08T02:40:17;2.53;;;2.33;;
26211;SDS011;13951;49.516;6.094;2023-09-08T02:42:54;3.42;;;2.30;;
26211;SDS011;13951;49.516;6.094;2023-09-08T02:45:27;2.00;;;1.90;;
26211;SDS011;13951;49.516;6.094;2023-09-08T02:48:01;3.95;;;2.42;;
26211;SDS011;13951;49.516;6.094;2023-09-08T02:50:35;2.60;;;2.40;;
26211;SDS011;13951;49.516;6.094;2023-09-08T02:53:09;3.08;;;2.47;;
26211;SDS011;13951;49.516;6.094;2023-09-08T02:55:42;2.55;;;2.22;;
26211;SDS011;13951;49.516;6.094;2023-09-08T02:58:15;2.55;;;2.35;;
26211;SDS011;13951;49.516;6.094;2023-09-08T03:00:48;3.58;;;2.92;;
26211;SDS011;13951;49.516;6.094;2023-09-08T03:03:24;2.95;;;2.65;;
26211;SDS011;13951;49.516;6.094;2023-09-08T03:05:58;3.15;;;2.85;;
26211;SDS011;13951;49.516;6.094;2023-09-08T03:08:36;3.47;;;2.90;;
26211;SDS011;13951;49.516;6.094;2023-09-08T03:11:12;4.57;;;3.15;;
26211;SDS011;13951;49.516;6.094;2023-09-08T03:13:45;3.50;;;3.03;;
26211;SDS011;13951;49.516;6.094;2023-09-08T03:16:19;3.65;;;3.15;;
26211;SDS011;13951;49.516;6.094;2023-09-08T03:18:54;3.50;;;2.67;;
26211;SDS011;13951;49.516;6.094;2023-09-08T03:21:27;4.53;;;2.67;;
26211;SDS011;13951;49.516;6.094;2023-09-08T03:24:00;3.15;;;2.45;;
26211;SDS011;13951;49.516;6.094;2023-09-08T03:26:33;4.03;;;2.38;;
26211;SDS011;13951;49.516;6.094;2023-09-08T03:29:06;3.83;;;2.40;;
26211;SDS011;13951;49.516;6.094;2023-09-08T03:31:39;3.25;;;2.50;;
26211;SDS011;13951;49.516;6.094;2023-09-08T03:34:13;2.95;;;2.30;;
26211;SDS011;13951;49.516;6.094;2023-09-08T03:36:48;2.10;;;1.90;;
26211;SDS011;13951;49.516;6.094;2023-09-08T03:39:22;2.22;;;2.03;;
26211;SDS011;13951;49.516;6.094;2023-09-08T03:41:55;2.38;;;2.17;;
26211;SDS011;13951;49.516;6.094;2023-09-08T03:44:29;2.25;;;2.05;;
26211;SDS011;13951;49.516;6.094;2023-09-08T03:47:02;2.22;;;2.10;;
26211;SDS011;13951;49.516;6.094;2023-09-08T03:49:36;2.70;;;2.47;;
26211;SDS011;13951;49.516;6.094;2023-09-08T03:52:10;2.22;;;2.03;;
26211;SDS011;13951;49.516;6.094;2023-09-08T03:54:55;2.25;;;2.05;;
26211;SDS011;13951;49.516;6.094;2023-09-08T03:57:28;2.53;;;2.33;;
26211;SDS011;13951;49.516;6.094;2023-09-08T04:00:01;2.63;;;2.23;;
26211;SDS011;13951;49.516;6.094;2023-09-08T04:02:45;2.90;;;2.60;;
26211;SDS011;13951;49.516;6.094;2023-09-08T04:05:18;3.10;;;2.47;;
26211;SDS011;13951;49.516;6.094;2023-09-08T04:07:51;2.60;;;2.27;;
26211;SDS011;13951;49.516;6.094;2023-09-08T04:10:25;3.15;;;2.13;;
26211;SDS011;13951;49.516;6.094;2023-09-08T04:12:58;3.15;;;2.80;;
26211;SDS011;13951;49.516;6.094;2023-09-08T04:15:31;3.65;;;2.70;;
26211;SDS011;13951;49.516;6.094;2023-09-08T04:18:04;3.13;;;2.83;;
26211;SDS011;13951;49.516;6.094;2023-09-08T04:20:37;4.90;;;2.80;;
26211;SDS011;13951;49.516;6.094;2023-09-08T04:23:11;3.00;;;2.70;;
26211;SDS011;13951;49.516;6.094;2023-09-08T04:25:45;5.18;;;2.95;;
26211;SDS011;13951;49.516;6.094;2023-09-08T04:28:18;3.45;;;2.88;;
26211;SDS011;13951;49.516;6.094;2023-09-08T04:30:51;2.92;;;2.70;;
26211;SDS011;13951;49.516;6.094;2023-09-08T04:33:25;4.03;;;2.80;;
26211;SDS011;13951;49.516;6.094;2023-09-08T04:35:59;2.88;;;2.55;;
26211;SDS011;13951;49.516;6.094;2023-09-08T04:38:32;3.53;;;2.90;;
26211;SDS011;13951;49.516;6.094;2023-09-08T04:41:05;3.33;;;3.03;;
26211;SDS011;13951;49.516;6.094;2023-09-08T04:43:38;4.00;;;3.60;;
26211;SDS011;13951;49.516;6.094;2023-09-08T04:46:11;4.53;;;3.97;;
26211;SDS011;13951;49.516;6.094;2023-09-08T04:48:44;5.57;;;4.43;;
26211;SDS011;13951;49.516;6.094;2023-09-08T04:51:18;4.53;;;4.13;;
26211;SDS011;13951;49.516;6.094;2023-09-08T04:53:51;6.17;;;5.20;;
26211;SDS011;13951;49.516;6.094;2023-09-08T04:56:24;7.20;;;4.88;;
26211;SDS011;13951;49.516;6.094;2023-09-08T04:58:57;5.32;;;4.05;;
26211;SDS011;13951;49.516;6.094;2023-09-08T05:01:34;4.53;;;3.50;;
26211;SDS011;13951;49.516;6.094;2023-09-08T05:04:11;5.70;;;4.05;;
26211;SDS011;13951;49.516;6.094;2023-09-08T05:06:45;6.10;;;3.63;;
26211;SDS011;13951;49.516;6.094;2023-09-08T05:09:21;3.53;;;3.20;;
26211;SDS011;13951;49.516;6.094;2023-09-08T05:11:54;3.53;;;2.90;;
26211;SDS011;13951;49.516;6.094;2023-09-08T05:14:28;3.00;;;2.60;;
26211;SDS011;13951;49.516;6.094;2023-09-08T05:17:01;2.67;;;2.45;;
26211;SDS011;13951;49.516;6.094;2023-09-08T05:19:34;2.38;;;2.10;;
26211;SDS011;13951;49.516;6.094;2023-09-08T05:22:08;2.00;;;1.85;;
26211;SDS011;13951;49.516;6.094;2023-09-08T05:24:41;2.78;;;2.08;;
26211;SDS011;13951;49.516;6.094;2023-09-08T05:27:14;2.90;;;2.20;;
26211;SDS011;13951;49.516;6.094;2023-09-08T05:29:47;2.40;;;2.20;;
26211;SDS011;13951;49.516;6.094;2023-09-08T05:32:20;1.77;;;1.67;;
26211;SDS011;13951;49.516;6.094;2023-09-08T05:34:54;2.43;;;2.17;;
26211;SDS011;13951;49.516;6.094;2023-09-08T05:37:27;3.30;;;2.30;;
26211;SDS011;13951;49.516;6.094;2023-09-08T05:40:00;3.47;;;2.05;;
26211;SDS011;13951;49.516;6.094;2023-09-08T05:42:34;3.78;;;2.70;;
26211;SDS011;13951;49.516;6.094;2023-09-08T05:45:07;3.78;;;2.55;;
26211;SDS011;13951;49.516;6.094;2023-09-08T05:47:42;3.35;;;2.55;;
26211;SDS011;13951;49.516;6.094;2023-09-08T05:50:16;6.88;;;3.92;;
26211;SDS011;13951;49.516;6.094;2023-09-08T05:52:50;9.88;;;4.10;;
26211;SDS011;13951;49.516;6.094;2023-09-08T05:55:24;8.35;;;4.25;;
26211;SDS011;13951;49.516;6.094;2023-09-08T05:57:57;7.35;;;4.13;;
26211;SDS011;13951;49.516;6.094;2023-09-08T06:00:30;8.60;;;4.55;;
26211;SDS011;13951;49.516;6.094;2023-09-08T06:03:03;5.50;;;3.60;;
26211;SDS011;13951;49.516;6.094;2023-09-08T06:05:38;4.57;;;3.50;;
26211;SDS011;13951;49.516;6.094;2023-09-08T06:08:11;6.05;;;3.67;;
26211;SDS011;13951;49.516;6.094;2023-09-08T06:10:47;7.35;;;3.80;;
26211;SDS011;13951;49.516;6.094;2023-09-08T06:13:20;4.38;;;3.67;;
26211;SDS011;13951;49.516;6.094;2023-09-08T06:15:53;6.53;;;4.78;;
26211;SDS011;13951;49.516;6.094;2023-09-08T06:18:27;5.38;;;4.40;;
26211;SDS011;13951;49.516;6.094;2023-09-08T06:21:02;11.57;;;4.97;;
26211;SDS011;13951;49.516;6.094;2023-09-08T06:23:36;10.27;;;5.13;;
26211;SDS011;13951;49.516;6.094;2023-09-08T06:26:10;6.60;;;4.72;;
26211;SDS011;13951;49.516;6.094;2023-09-08T06:28:44;8.98;;;4.90;;
26211;SDS011;13951;49.516;6.094;2023-09-08T06:31:18;8.90;;;5.20;;
26211;SDS011;13951;49.516;6.094;2023-09-08T06:33:51;7.10;;;5.03;;
26211;SDS011;13951;49.516;6.094;2023-09-08T06:36:26;7.43;;;4.95;;
26211;SDS011;13951;49.516;6.094;2023-09-08T06:39:00;12.23;;;4.93;;
26211;SDS011;13951;49.516;6.094;2023-09-08T06:41:33;7.15;;;4.30;;
26211;SDS011;13951;49.516;6.094;2023-09-08T06:44:09;10.30;;;4.60;;
26211;SDS011;13951;49.516;6.094;2023-09-08T06:46:42;6.43;;;4.35;;
26211;SDS011;13951;49.516;6.094;2023-09-08T06:49:15;5.28;;;4.35;;
26211;SDS011;13951;49.516;6.094;2023-09-08T06:51:49;5.57;;;4.32;;
26211;SDS011;13951;49.516;6.094;2023-09-08T06:54:22;7.60;;;4.70;;
26211;SDS011;13951;49.516;6.094;2023-09-08T06:56:56;5.47;;;4.47;;
26211;SDS011;13951;49.516;6.094;2023-09-08T06:59:28;5.47;;;4.47;;
26211;SDS011;13951;49.516;6.094;2023-09-08T07:02:02;8.38;;;4.70;;
26211;SDS011;13951;49.516;6.094;2023-09-08T07:04:35;8.02;;;4.88;;
26211;SDS011;13951;49.516;6.094;2023-09-08T07:07:09;11.07;;;5.47;;
26211;SDS011;13951;49.516;6.094;2023-09-08T07:09:44;7.97;;;5.07;;
26211;SDS011;13951;49.516;6.094;2023-09-08T07:12:18;11.43;;;5.03;;
26211;SDS011;13951;49.516;6.094;2023-09-08T07:14:51;6.10;;;4.10;;
26211;SDS011;13951;49.516;6.094;2023-09-08T07:17:24;8.80;;;4.68;;
26211;SDS011;13951;49.516;6.094;2023-09-08T07:19:58;8.15;;;4.30;;
26211;SDS011;13951;49.516;6.094;2023-09-08T07:22:32;8.23;;;4.95;;
26211;SDS011;13951;49.516;6.094;2023-09-08T07:25:05;6.20;;;4.72;;
26211;SDS011;13951;49.516;6.094;2023-09-08T07:27:39;6.10;;;4.68;;
26211;SDS011;13951;49.516;6.094;2023-09-08T07:30:12;9.65;;;4.97;;
26211;SDS011;13951;49.516;6.094;2023-09-08T07:32:46;5.05;;;3.85;;
26211;SDS011;13951;49.516;6.094;2023-09-08T07:35:19;7.65;;;4.32;;
26211;SDS011;13951;49.516;6.094;2023-09-08T07:37:53;4.68;;;3.70;;
26211;SDS011;13951;49.516;6.094;2023-09-08T07:40:26;7.18;;;3.35;;
26211;SDS011;13951;49.516;6.094;2023-09-08T07:42:59;4.47;;;3.25;;
26211;SDS011;13951;49.516;6.094;2023-09-08T07:45:33;6.70;;;3.78;;
26211;SDS011;13951;49.516;6.094;2023-09-08T07:48:06;4.28;;;3.63;;
26211;SDS011;13951;49.516;6.094;2023-09-08T07:50:39;4.75;;;3.67;;
26211;SDS011;13951;49.516;6.094;2023-09-08T07:53:12;3.55;;;3.20;;
26211;SDS011;13951;49.516;6.094;2023-09-08T07:55:45;4.43;;;3.47;;
26211;SDS011;13951;49.516;6.094;2023-09-08T07:58:19;4.07;;;2.97;;
26211;SDS011;13951;49.516;6.094;2023-09-08T08:00:52;4.10;;;3.13;;
26211;SDS011;13951;49.516;6.094;2023-09-08T08:03:25;4.25;;;3.13;;
26211;SDS011;13951;49.516;6.094;2023-09-08T08:05:58;4.93;;;3.58;;
26211;SDS011;13951;49.516;6.094;2023-09-08T08:08:32;4.30;;;3.60;;
26211;SDS011;13951;49.516;6.094;2023-09-08T08:11:12;5.88;;;3.50;;
26211;SDS011;13951;49.516;6.094;2023-09-08T08:13:46;4.40;;;3.30;;
26211;SDS011;13951;49.516;6.094;2023-09-08T08:16:20;4.25;;;3.60;;
26211;SDS011;13951;49.516;6.094;2023-09-08T08:18:55;5.95;;;3.70;;
26211;SDS011;13951;49.516;6.094;2023-09-08T08:21:28;7.70;;;3.92;;
26211;SDS011;13951;49.516;6.094;2023-09-08T08:24:02;4.85;;;3.60;;
26211;SDS011;13951;49.516;6.094;2023-09-08T08:26:37;5.57;;;3.40;;
26211;SDS011;13951;49.516;6.094;2023-09-08T08:29:10;9.32;;;3.60;;
26211;SDS011;13951;49.516;6.094;2023-09-08T08:31:43;4.13;;;3.72;;
26211;SDS011;13951;49.516;6.094;2023-09-08T08:34:16;6.97;;;3.65;;
26211;SDS011;13951;49.516;6.094;2023-09-08T08:36:50;6.88;;;4.18;;
26211;SDS011;13951;49.516;6.094;2023-09-08T08:39:25;5.13;;;3.85;;
26211;SDS011;13951;49.516;6.094;2023-09-08T08:42:05;7.75;;;4.32;;
26211;SDS011;13951;49.516;6.094;2023-09-08T08:44:39;8.05;;;3.72;;
26211;SDS011;13951;49.516;6.094;2023-09-08T08:47:14;8.23;;;4.38;;
26211;SDS011;13951;49.516;6.094;2023-09-08T08:49:48;6.32;;;4.10;;
26211;SDS011;13951;49.516;6.094;2023-09-08T08:52:27;7.40;;;4.20;;
26211;SDS011;13951;49.516;6.094;2023-09-08T08:55:01;8.23;;;4.20;;
26211;SDS011;13951;49.516;6.094;2023-09-08T08:57:36;5.20;;;3.90;;
26211;SDS011;13951;49.516;6.094;2023-09-08T09:00:11;7.13;;;4.13;;
26211;SDS011;13951;49.516;6.094;2023-09-08T09:02:45;10.50;;;7.47;;
26211;SDS011;13951;49.516;6.094;2023-09-08T09:05:38;5.10;;;3.50;;
26211;SDS011;13951;49.516;6.094;2023-09-08T09:08:18;6.53;;;4.00;;
26211;SDS011;13951;49.516;6.094;2023-09-08T09:10:51;4.25;;;3.58;;
26211;SDS011;13951;49.516;6.094;2023-09-08T09:13:26;4.80;;;3.53;;
26211;SDS011;13951;49.516;6.094;2023-09-08T09:15:59;8.02;;;4.90;;
26211;SDS011;13951;49.516;6.094;2023-09-08T09:18:34;7.32;;;4.57;;
26211;SDS011;13951;49.516;6.094;2023-09-08T09:21:08;7.47;;;3.80;;
26211;SDS011;13951;49.516;6.094;2023-09-08T09:23:41;5.07;;;4.00;;
26211;SDS011;13951;49.516;6.094;2023-09-08T09:26:22;5.22;;;3.97;;
26211;SDS011;13951;49.516;6.094;2023-09-08T09:28:57;5.70;;;3.70;;
26211;SDS011;13951;49.516;6.094;2023-09-08T09:31:31;5.45;;;4.95;;
26211;SDS011;13951;49.516;6.094;2023-09-08T09:34:05;5.55;;;4.22;;
26211;SDS011;13951;49.516;6.094;2023-09-08T09:36:39;4.38;;;3.55;;
26211;SDS011;13951;49.516;6.094;2023-09-08T09:39:20;5.63;;;3.42;;
26211;SDS011;13951;49.516;6.094;2023-09-08T09:41:55;5.63;;;3.80;;
26211;SDS011;13951;49.516;6.094;2023-09-08T09:44:29;5.53;;;3.72;;
26211;SDS011;13951;49.516;6.094;2023-09-08T09:47:02;4.57;;;3.60;;
26211;SDS011;13951;49.516;6.094;2023-09-08T09:49:45;5.53;;;3.50;;
26211;SDS011;13951;49.516;6.094;2023-09-08T09:52:21;5.20;;;3.28;;
26211;SDS011;13951;49.516;6.094;2023-09-08T09:54:56;6.18;;;3.95;;
26211;SDS011;13951;49.516;6.094;2023-09-08T09:57:30;4.43;;;3.53;;
26211;SDS011;13951;49.516;6.094;2023-09-08T10:00:05;4.43;;;3.42;;
26211;SDS011;13951;49.516;6.094;2023-09-08T10:02:39;6.60;;;4.72;;
26211;SDS011;13951;49.516;6.094;2023-09-08T10:05:12;8.77;;;4.65;;
26211;SDS011;13951;49.516;6.094;2023-09-08T10:07:46;4.88;;;4.18;;
26211;SDS011;13951;49.516;6.094;2023-09-08T10:10:21;5.35;;;3.90;;
26211;SDS011;13951;49.516;6.094;2023-09-08T10:12:56;9.95;;;4.40;;
26211;SDS011;13951;49.516;6.094;2023-09-08T10:15:33;6.38;;;3.72;;
26211;SDS011;13951;49.516;6.094;2023-09-08T10:18:07;9.20;;;4.00;;
26211;SDS011;13951;49.516;6.094;2023-09-08T10:20:44;5.93;;;4.00;;
26211;SDS011;13951;49.516;6.094;2023-09-08T10:23:23;7.63;;;5.40;;
26211;SDS011;13951;49.516;6.094;2023-09-08T10:26:02;7.22;;;3.88;;
26211;SDS011;13951;49.516;6.094;2023-09-08T10:28:38;6.10;;;4.28;;
26211;SDS011;13951;49.516;6.094;2023-09-08T10:31:11;7.55;;;4.13;;
26211;SDS011;13951;49.516;6.094;2023-09-08T10:33:47;5.47;;;3.97;;
26211;SDS011;13951;49.516;6.094;2023-09-08T10:36:20;5.38;;;3.65;;
26211;SDS011;13951;49.516;6.094;2023-09-08T10:38:54;3.50;;;3.20;;
26211;SDS011;13951;49.516;6.094;2023-09-08T10:41:36;7.07;;;3.90;;
26211;SDS011;13951;49.516;6.094;2023-09-08T10:44:10;5.68;;;4.00;;
26211;SDS011;13951;49.516;6.094;2023-09-08T10:46:48;5.05;;;3.53;;
26211;SDS011;13951;49.516;6.094;2023-09-08T10:49:21;5.88;;;3.55;;
26211;SDS011;13951;49.516;6.094;2023-09-08T10:52:05;5.53;;;3.72;;
26211;SDS011;13951;49.516;6.094;2023-09-08T10:54:47;5.70;;;3.67;;
26211;SDS011;13951;49.516;6.094;2023-09-08T10:57:23;4.43;;;3.80;;
26211;SDS011;13951;49.516;6.094;2023-09-08T10:59:57;8.30;;;4.68;;
26211;SDS011;13951;49.516;6.094;2023-09-08T11:02:37;6.03;;;3.92;;
26211;SDS011;13951;49.516;6.094;2023-09-08T11:05:12;4.32;;;3.72;;
26211;SDS011;13951;49.516;6.094;2023-09-08T11:07:47;5.38;;;4.40;;
26211;SDS011;13951;49.516;6.094;2023-09-08T11:10:25;8.07;;;4.13;;
26211;SDS011;13951;49.516;6.094;2023-09-08T11:12:58;5.47;;;3.90;;
26211;SDS011;13951;49.516;6.094;2023-09-08T11:15:32;4.57;;;3.47;;
26211;SDS011;13951;49.516;6.094;2023-09-08T11:18:05;4.88;;;3.80;;
26211;SDS011;13951;49.516;6.094;2023-09-08T11:20:40;4.93;;;3.72;;
26211;SDS011;13951;49.516;6.094;2023-09-08T11:23:14;3.33;;;3.03;;
26211;SDS011;13951;49.516;6.094;2023-09-08T11:25:51;3.85;;;3.00;;
26211;SDS011;13951;49.516;6.094;2023-09-08T11:28:25;3.95;;;3.40;;
26211;SDS011;13951;49.516;6.094;2023-09-08T11:30:59;5.95;;;3.45;;
26211;SDS011;13951;49.516;6.094;2023-09-08T11:33:34;3.95;;;3.55;;
26211;SDS011;13951;49.516;6.094;2023-09-08T11:36:13;5.47;;;3.60;;
26211;SDS011;13951;49.516;6.094;2023-09-08T11:38:47;5.72;;;3.42;;
26211;SDS011;13951;49.516;6.094;2023-09-08T11:41:20;4.97;;;3.78;;
26211;SDS011;13951;49.516;6.094;2023-09-08T11:43:56;4.85;;;3.50;;
26211;SDS011;13951;49.516;6.094;2023-09-08T11:46:29;4.13;;;3.42;;
26211;SDS011;13951;49.516;6.094;2023-09-08T11:49:04;4.07;;;3.47;;
26211;SDS011;13951;49.516;6.094;2023-09-08T11:51:37;4.43;;;3.03;;
26211;SDS011;13951;49.516;6.094;2023-09-08T11:54:10;5.35;;;3.53;;
26211;SDS011;13951;49.516;6.094;2023-09-08T11:56:45;7.60;;;3.97;;
26211;SDS011;13951;49.516;6.094;2023-09-08T11:59:18;6.38;;;4.00;;
26211;SDS011;13951;49.516;6.094;2023-09-08T12:01:52;4.55;;;3.72;;
26211;SDS011;13951;49.516;6.094;2023-09-08T12:04:25;7.10;;;3.75;;
26211;SDS011;13951;49.516;6.094;2023-09-08T12:06:59;5.32;;;3.70;;
26211;SDS011;13951;49.516;6.094;2023-09-08T12:09:32;5.45;;;3.63;;
26211;SDS011;13951;49.516;6.094;2023-09-08T12:12:05;4.35;;;3.33;;
26211;SDS011;13951;49.516;6.094;2023-09-08T12:14:46;5.47;;;3.60;;
26211;SDS011;13951;49.516;6.094;2023-09-08T12:17:20;5.03;;;3.30;;
26211;SDS011;13951;49.516;6.094;2023-09-08T12:19:57;6.32;;;3.67;;
26211;SDS011;13951;49.516;6.094;2023-09-08T12:22:32;4.97;;;3.45;;
26211;SDS011;13951;49.516;6.094;2023-09-08T12:25:07;5.88;;;3.55;;
26211;SDS011;13951;49.516;6.094;2023-09-08T12:27:41;4.85;;;3.20;;
26211;SDS011;13951;49.516;6.094;2023-09-08T12:30:21;3.90;;;2.88;;
26211;SDS011;13951;49.516;6.094;2023-09-08T12:33:07;3.42;;;3.10;;
26211;SDS011;13951;49.516;6.094;2023-09-08T12:35:44;5.53;;;3.08;;
26211;SDS011;13951;49.516;6.094;2023-09-08T12:38:20;4.93;;;3.30;;
26211;SDS011;13951;49.516;6.094;2023-09-08T12:40:55;5.18;;;3.15;;
26211;SDS011;13951;49.516;6.094;2023-09-08T12:43:28;3.90;;;3.30;;
26211;SDS011;13951;49.516;6.094;2023-09-08T12:46:02;3.33;;;3.03;;
26211;SDS011;13951;49.516;6.094;2023-09-08T12:48:35;3.92;;;3.08;;
26211;SDS011;13951;49.516;6.094;2023-09-08T12:51:09;3.67;;;3.25;;
26211;SDS011;13951;49.516;6.094;2023-09-08T12:53:42;7.78;;;3.45;;
26211;SDS011;13951;49.516;6.094;2023-09-08T12:56:15;4.53;;;3.08;;
26211;SDS011;13951;49.516;6.094;2023-09-08T12:58:48;6.10;;;3.28;;
26211;SDS011;13951;49.516;6.094;2023-09-08T13:01:21;5.43;;;3.30;;
26211;SDS011;13951;49.516;6.094;2023-09-08T13:03:54;4.55;;;3.10;;
26211;SDS011;13951;49.516;6.094;2023-09-08T13:06:27;6.10;;;3.22;;
26211;SDS011;13951;49.516;6.094;2023-09-08T13:09:00;4.72;;;3.35;;
26211;SDS011;13951;49.516;6.094;2023-09-08T13:11:33;4.47;;;2.83;;
26211;SDS011;13951;49.516;6.094;2023-09-08T13:14:06;3.53;;;2.60;;
26211;SDS011;13951;49.516;6.094;2023-09-08T13:16:40;5.13;;;2.75;;
26211;SDS011;13951;49.516;6.094;2023-09-08T13:19:13;6.35;;;2.85;;
26211;SDS011;13951;49.516;6.094;2023-09-08T13:21:46;3.40;;;2.35;;
26211;SDS011;13951;49.516;6.094;2023-09-08T13:24:20;4.22;;;2.70;;
26211;SDS011;13951;49.516;6.094;2023-09-08T13:26:54;4.60;;;2.60;;
26211;SDS011;13951;49.516;6.094;2023-09-08T13:29:27;5.15;;;2.47;;
26211;SDS011;13951;49.516;6.094;2023-09-08T13:32:03;7.68;;;3.42;;
26211;SDS011;13951;49.516;6.094;2023-09-08T13:34:37;7.10;;;2.70;;
26211;SDS011;13951;49.516;6.094;2023-09-08T13:37:12;4.25;;;2.70;;
26211;SDS011;13951;49.516;6.094;2023-09-08T13:39:46;4.25;;;2.70;;
26211;SDS011;13951;49.516;6.094;2023-09-08T13:42:26;3.60;;;2.38;;
26211;SDS011;13951;49.516;6.094;2023-09-08T13:45:00;6.07;;;2.53;;
26211;SDS011;13951;49.516;6.094;2023-09-08T13:47:33;6.10;;;3.78;;
26211;SDS011;13951;49.516;6.094;2023-09-08T13:50:10;17.98;;;12.57;;
26211;SDS011;13951;49.516;6.094;2023-09-08T13:52:45;6.68;;;3.63;;
26211;SDS011;13951;49.516;6.094;2023-09-08T13:55:21;3.67;;;2.63;;
26211;SDS011;13951;49.516;6.094;2023-09-08T13:58:09;4.88;;;2.30;;
26211;SDS011;13951;49.516;6.094;2023-09-08T14:00:43;5.47;;;3.00;;
26211;SDS011;13951;49.516;6.094;2023-09-08T14:03:18;3.22;;;2.42;;
26211;SDS011;13951;49.516;6.094;2023-09-08T14:05:55;5.22;;;2.47;;
26211;SDS011;13951;49.516;6.094;2023-09-08T14:08:34;3.50;;;2.45;;
26211;SDS011;13951;49.516;6.094;2023-09-08T14:11:27;2.78;;;2.38;;
26211;SDS011;13951;49.516;6.094;2023-09-08T14:14:20;4.78;;;2.67;;
26211;SDS011;13951;49.516;6.094;2023-09-08T14:16:54;3.03;;;2.42;;
26211;SDS011;13951;49.516;6.094;2023-09-08T14:19:27;2.90;;;2.45;;
26211;SDS011;13951;49.516;6.094;2023-09-08T14:22:01;9.00;;;2.40;;
26211;SDS011;13951;49.516;6.094;2023-09-08T14:24:34;4.50;;;2.75;;
26211;SDS011;13951;49.516;6.094;2023-09-08T14:27:07;3.97;;;2.53;;
26211;SDS011;13951;49.516;6.094;2023-09-08T14:29:40;3.60;;;2.35;;
26211;SDS011;13951;49.516;6.094;2023-09-08T14:32:14;2.95;;;2.65;;
26211;SDS011;13951;49.516;6.094;2023-09-08T14:34:48;5.20;;;2.45;;
26211;SDS011;13951;49.516;6.094;2023-09-08T14:37:21;4.50;;;2.60;;
26211;SDS011;13951;49.516;6.094;2023-09-08T14:39:55;5.00;;;2.75;;
26211;SDS011;13951;49.516;6.094;2023-09-08T14:42:28;4.18;;;2.40;;
26211;SDS011;13951;49.516;6.094;2023-09-08T14:45:02;4.45;;;2.47;;
26211;SDS011;13951;49.516;6.094;2023-09-08T14:47:36;4.43;;;2.47;;
26211;SDS011;13951;49.516;6.094;2023-09-08T14:50:09;3.97;;;2.50;;
26211;SDS011;13951;49.516;6.094;2023-09-08T14:52:42;3.05;;;2.53;;
26211;SDS011;13951;49.516;6.094;2023-09-08T14:55:15;3.10;;;2.40;;
26211;SDS011;13951;49.516;6.094;2023-09-08T14:57:48;3.17;;;2.42;;
26211;SDS011;13951;49.516;6.094;2023-09-08T15:00:22;4.22;;;2.88;;
26211;SDS011;13951;49.516;6.094;2023-09-08T15:02:56;3.28;;;2.40;;
26211;SDS011;13951;49.516;6.094;2023-09-08T15:05:30;4.40;;;2.50;;
26211;SDS011;13951;49.516;6.094;2023-09-08T15:08:05;3.17;;;2.17;;
26211;SDS011;13951;49.516;6.094;2023-09-08T15:10:39;6.30;;;2.88;;
26211;SDS011;13951;49.516;6.094;2023-09-08T15:13:14;4.78;;;2.63;;
26211;SDS011;13951;49.516;6.094;2023-09-08T15:15:47;2.45;;;2.25;;
26211;SDS011;13951;49.516;6.094;2023-09-08T15:18:20;3.67;;;2.40;;
26211;SDS011;13951;49.516;6.094;2023-09-08T15:20:56;3.28;;;2.17;;
26211;SDS011;13951;49.516;6.094;2023-09-08T15:23:30;6.05;;;2.58;;
26211;SDS011;13951;49.516;6.094;2023-09-08T15:26:04;2.80;;;2.47;;
26211;SDS011;13951;49.516;6.094;2023-09-08T15:28:37;4.15;;;2.60;;
26211;SDS011;13951;49.516;6.094;2023-09-08T15:31:11;7.55;;;2.47;;
26211;SDS011;13951;49.516;6.094;2023-09-08T15:33:49;3.22;;;2.63;;